Santo Domingo, Argentina
Current Conditions -  °F | °C
As of 6:00 PM on Wednesday 26 Nov 2014 (Local Time) from SAAR Reporting Station
Clear Clear  
Wind Chill: 26°   Ceiling: Unl
Heat Index: 26°   Visibility: 6mi
Dew Point: 13°   Wind: 9mph
Humidity: 44%   Direction: 50°NE
Pressure: 29.88"   Gusts: NA
Location:  31.12°S, 60.88°W
Report Text: SAAR 262100Z 05008KT CAVOK 26/13 Q1012
Loading
Personal Weather Stations






























Interactive Weather Map New forecast layout! Learn more

10-Day Weather Forecast

Advertisements
Track Severe Weather on mobile